Avon, Illinois
Current Conditions -  °F | °C
As of 1:55 AM on Saturday 20 Dec 2014 (Local Time) from KMQB Reporting Station
Overcast Overcast  
Wind Chill: 25°   Ceiling: 5000
Heat Index: 30°   Visibility: 7mi
Dew Point: 27°   Wind: 5mph
Humidity: 86%   Direction: 140°SE
Pressure: 30.28"   Gusts: NA
Location:  40.66°N, 90.43°W
Report Text: KMQB 200755Z AUTO 14004KT 7SM OVC050 M01/M03 A3028 RMK AO2 T10101030
Loading
Personal Weather Stations






























Interactive Weather Map New forecast layout! Learn more

10-Day Weather Forecast

Advertisements
Track Severe Weather on mobile